sensor_id;sensor_type;location;lat;lon;timestamp;P1;durP1;ratioP1;P2;durP2;ratioP2
19575;SDS011;41589;51.196;7.074;2023-04-07T00:03:23;3.67;;;3.00;;
19575;SDS011;41589;51.196;7.074;2023-04-07T00:09:39;3.23;;;3.03;;
19575;SDS011;41589;51.196;7.074;2023-04-07T00:21:01;3.50;;;3.00;;
19575;SDS011;41589;51.196;7.074;2023-04-07T00:26:19;3.17;;;2.97;;
19575;SDS011;41589;51.196;7.074;2023-04-07T00:31:35;3.20;;;2.90;;
19575;SDS011;41589;51.196;7.074;2023-04-07T00:36:50;3.40;;;3.20;;
19575;SDS011;41589;51.196;7.074;2023-04-07T00:42:01;3.50;;;3.30;;
19575;SDS011;41589;51.196;7.074;2023-04-07T00:47:10;3.33;;;3.13;;
19575;SDS011;41589;51.196;7.074;2023-04-07T00:52:25;3.20;;;3.00;;
19575;SDS011;41589;51.196;7.074;2023-04-07T00:57:32;3.30;;;3.00;;
19575;SDS011;41589;51.196;7.074;2023-04-07T01:03:08;3.23;;;3.03;;
19575;SDS011;41589;51.196;7.074;2023-04-07T01:08:24;3.10;;;3.00;;
19575;SDS011;41589;51.196;7.074;2023-04-07T01:14:01;3.20;;;3.00;;
19575;SDS011;41589;51.196;7.074;2023-04-07T01:19:52;3.50;;;3.30;;
19575;SDS011;41589;51.196;7.074;2023-04-07T01:31:11;2.80;;;2.67;;
19575;SDS011;41589;51.196;7.074;2023-04-07T01:36:26;3.13;;;2.97;;
19575;SDS011;41589;51.196;7.074;2023-04-07T01:42:00;3.20;;;3.00;;
19575;SDS011;41589;51.196;7.074;2023-04-07T01:52:31;3.20;;;3.00;;
19575;SDS011;41589;51.196;7.074;2023-04-07T01:58:01;3.50;;;3.30;;
19575;SDS011;41589;51.196;7.074;2023-04-07T02:03:29;3.50;;;3.30;;
19575;SDS011;41589;51.196;7.074;2023-04-07T02:14:23;4.27;;;3.87;;
19575;SDS011;41589;51.196;7.074;2023-04-07T02:19:43;4.17;;;3.90;;
19575;SDS011;41589;51.196;7.074;2023-04-07T02:25:37;3.70;;;3.50;;
19575;SDS011;41589;51.196;7.074;2023-04-07T02:36:20;4.30;;;4.00;;
19575;SDS011;41589;51.196;7.074;2023-04-07T02:41:29;3.53;;;3.33;;
19575;SDS011;41589;51.196;7.074;2023-04-07T02:47:03;3.67;;;3.47;;
19575;SDS011;41589;51.196;7.074;2023-04-07T02:52:21;3.63;;;3.43;;
19575;SDS011;41589;51.196;7.074;2023-04-07T02:58:06;3.20;;;3.00;;
19575;SDS011;41589;51.196;7.074;2023-04-07T03:03:19;3.50;;;3.30;;
19575;SDS011;41589;51.196;7.074;2023-04-07T03:08:32;3.70;;;3.50;;
19575;SDS011;41589;51.196;7.074;2023-04-07T03:13:39;3.67;;;3.47;;
19575;SDS011;41589;51.196;7.074;2023-04-07T03:18:52;3.60;;;3.33;;
19575;SDS011;41589;51.196;7.074;2023-04-07T03:23:57;5.13;;;4.73;;
19575;SDS011;41589;51.196;7.074;2023-04-07T03:29:06;5.23;;;4.83;;
19575;SDS011;41589;51.196;7.074;2023-04-07T03:34:07;10.40;;;5.83;;
19575;SDS011;41589;51.196;7.074;2023-04-07T03:39:07;14.60;;;7.90;;
19575;SDS011;41589;51.196;7.074;2023-04-07T03:44:10;6.67;;;6.17;;
19575;SDS011;41589;51.196;7.074;2023-04-07T03:49:11;6.70;;;6.10;;
19575;SDS011;41589;51.196;7.074;2023-04-07T03:54:12;6.03;;;5.53;;
19575;SDS011;41589;51.196;7.074;2023-04-07T03:59:15;7.67;;;6.87;;
19575;SDS011;41589;51.196;7.074;2023-04-07T04:04:27;6.30;;;5.80;;
19575;SDS011;41589;51.196;7.074;2023-04-07T04:09:31;6.43;;;5.93;;
19575;SDS011;41589;51.196;7.074;2023-04-07T04:14:35;5.80;;;5.30;;
19575;SDS011;41589;51.196;7.074;2023-04-07T04:19:37;6.63;;;5.97;;
19575;SDS011;41589;51.196;7.074;2023-04-07T04:24:47;6.37;;;5.83;;
19575;SDS011;41589;51.196;7.074;2023-04-07T04:29:48;6.00;;;5.40;;
19575;SDS011;41589;51.196;7.074;2023-04-07T04:34:54;4.93;;;4.53;;
19575;SDS011;41589;51.196;7.074;2023-04-07T04:39:59;6.57;;;5.97;;
19575;SDS011;41589;51.196;7.074;2023-04-07T04:44:59;6.70;;;6.07;;
19575;SDS011;41589;51.196;7.074;2023-04-07T04:50:01;6.87;;;6.27;;
19575;SDS011;41589;51.196;7.074;2023-04-07T04:55:07;6.17;;;5.57;;
19575;SDS011;41589;51.196;7.074;2023-04-07T05:00:11;6.10;;;5.60;;
19575;SDS011;41589;51.196;7.074;2023-04-07T05:05:14;6.73;;;6.13;;
19575;SDS011;41589;51.196;7.074;2023-04-07T05:10:17;8.30;;;7.00;;
19575;SDS011;41589;51.196;7.074;2023-04-07T05:15:23;7.57;;;6.77;;
19575;SDS011;41589;51.196;7.074;2023-04-07T05:20:31;7.80;;;7.10;;
19575;SDS011;41589;51.196;7.074;2023-04-07T05:25:33;9.70;;;8.27;;
19575;SDS011;41589;51.196;7.074;2023-04-07T05:30:46;8.43;;;7.63;;
19575;SDS011;41589;51.196;7.074;2023-04-07T05:35:47;9.67;;;7.83;;
19575;SDS011;41589;51.196;7.074;2023-04-07T05:40:49;20.33;;;11.03;;
19575;SDS011;41589;51.196;7.074;2023-04-07T05:45:58;7.53;;;6.83;;
19575;SDS011;41589;51.196;7.074;2023-04-07T05:51:04;7.73;;;6.97;;
19575;SDS011;41589;51.196;7.074;2023-04-07T05:56:07;10.57;;;7.87;;
19575;SDS011;41589;51.196;7.074;2023-04-07T06:01:20;6.83;;;6.17;;
19575;SDS011;41589;51.196;7.074;2023-04-07T06:06:24;10.57;;;6.67;;
19575;SDS011;41589;51.196;7.074;2023-04-07T06:11:32;6.53;;;5.93;;
19575;SDS011;41589;51.196;7.074;2023-04-07T06:16:33;6.73;;;6.13;;
19575;SDS011;41589;51.196;7.074;2023-04-07T06:21:33;7.47;;;6.70;;
19575;SDS011;41589;51.196;7.074;2023-04-07T06:26:39;6.87;;;6.13;;
19575;SDS011;41589;51.196;7.074;2023-04-07T06:31:43;6.83;;;6.13;;
19575;SDS011;41589;51.196;7.074;2023-04-07T06:36:49;7.73;;;6.93;;
19575;SDS011;41589;51.196;7.074;2023-04-07T06:41:51;6.87;;;6.17;;
19575;SDS011;41589;51.196;7.074;2023-04-07T06:47:10;11.73;;;7.87;;
19575;SDS011;41589;51.196;7.074;2023-04-07T06:52:19;7.50;;;6.70;;
19575;SDS011;41589;51.196;7.074;2023-04-07T06:57:22;7.77;;;6.80;;
19575;SDS011;41589;51.196;7.074;2023-04-07T07:02:31;9.20;;;7.77;;
19575;SDS011;41589;51.196;7.074;2023-04-07T07:07:31;6.67;;;6.07;;
19575;SDS011;41589;51.196;7.074;2023-04-07T07:13:01;6.63;;;6.03;;
19575;SDS011;41589;51.196;7.074;2023-04-07T07:18:07;9.40;;;8.27;;
19575;SDS011;41589;51.196;7.074;2023-04-07T07:23:07;7.00;;;6.27;;
19575;SDS011;41589;51.196;7.074;2023-04-07T07:28:26;6.53;;;5.93;;
19575;SDS011;41589;51.196;7.074;2023-04-07T07:33:33;7.27;;;6.57;;
19575;SDS011;41589;51.196;7.074;2023-04-07T07:38:34;7.40;;;6.70;;
19575;SDS011;41589;51.196;7.074;2023-04-07T07:43:59;9.47;;;7.30;;
19575;SDS011;41589;51.196;7.074;2023-04-07T07:49:02;7.83;;;6.80;;
19575;SDS011;41589;51.196;7.074;2023-04-07T07:54:22;8.17;;;7.00;;
19575;SDS011;41589;51.196;7.074;2023-04-07T07:59:23;7.33;;;6.73;;
19575;SDS011;41589;51.196;7.074;2023-04-07T08:04:26;7.63;;;6.57;;
19575;SDS011;41589;51.196;7.074;2023-04-07T08:09:32;7.80;;;7.10;;
19575;SDS011;41589;51.196;7.074;2023-04-07T08:14:33;8.07;;;7.27;;
19575;SDS011;41589;51.196;7.074;2023-04-07T08:19:47;9.30;;;7.80;;
19575;SDS011;41589;51.196;7.074;2023-04-07T08:24:55;7.50;;;6.80;;
19575;SDS011;41589;51.196;7.074;2023-04-07T08:29:59;7.20;;;6.60;;
19575;SDS011;41589;51.196;7.074;2023-04-07T08:35:30;7.67;;;6.97;;
19575;SDS011;41589;51.196;7.074;2023-04-07T08:40:31;7.40;;;6.70;;
19575;SDS011;41589;51.196;7.074;2023-04-07T08:45:32;7.90;;;6.70;;
19575;SDS011;41589;51.196;7.074;2023-04-07T08:50:33;6.30;;;5.80;;
19575;SDS011;41589;51.196;7.074;2023-04-07T08:55:35;6.40;;;5.90;;
19575;SDS011;41589;51.196;7.074;2023-04-07T09:00:39;6.93;;;6.23;;
19575;SDS011;41589;51.196;7.074;2023-04-07T09:05:47;7.50;;;6.80;;
19575;SDS011;41589;51.196;7.074;2023-04-07T09:10:55;7.13;;;6.50;;
19575;SDS011;41589;51.196;7.074;2023-04-07T09:16:14;6.77;;;6.17;;
19575;SDS011;41589;51.196;7.074;2023-04-07T09:21:17;7.13;;;6.27;;
19575;SDS011;41589;51.196;7.074;2023-04-07T09:26:19;6.70;;;6.00;;
19575;SDS011;41589;51.196;7.074;2023-04-07T09:31:44;7.93;;;6.60;;
19575;SDS011;41589;51.196;7.074;2023-04-07T09:36:54;6.17;;;5.70;;
19575;SDS011;41589;51.196;7.074;2023-04-07T09:41:56;6.63;;;5.93;;
19575;SDS011;41589;51.196;7.074;2023-04-07T09:46:57;6.03;;;5.53;;
19575;SDS011;41589;51.196;7.074;2023-04-07T09:52:07;6.27;;;5.77;;
19575;SDS011;41589;51.196;7.074;2023-04-07T09:57:13;5.87;;;5.47;;
19575;SDS011;41589;51.196;7.074;2023-04-07T10:02:21;5.60;;;5.10;;
19575;SDS011;41589;51.196;7.074;2023-04-07T10:07:24;5.17;;;4.77;;
19575;SDS011;41589;51.196;7.074;2023-04-07T10:12:29;4.27;;;3.87;;
19575;SDS011;41589;51.196;7.074;2023-04-07T10:17:39;4.07;;;3.77;;
19575;SDS011;41589;51.196;7.074;2023-04-07T10:23:00;3.53;;;3.30;;
19575;SDS011;41589;51.196;7.074;2023-04-07T10:28:21;2.80;;;2.60;;
19575;SDS011;41589;51.196;7.074;2023-04-07T10:33:48;3.20;;;3.00;;
19575;SDS011;41589;51.196;7.074;2023-04-07T10:55:36;3.63;;;3.33;;
19575;SDS011;41589;51.196;7.074;2023-04-07T11:06:12;5.13;;;4.53;;
19575;SDS011;41589;51.196;7.074;2023-04-07T11:11:16;5.53;;;5.03;;
19575;SDS011;41589;51.196;7.074;2023-04-07T11:16:34;5.40;;;4.90;;
19575;SDS011;41589;51.196;7.074;2023-04-07T11:21:38;5.83;;;5.23;;
19575;SDS011;41589;51.196;7.074;2023-04-07T11:26:44;5.87;;;5.33;;
19575;SDS011;41589;51.196;7.074;2023-04-07T11:31:54;5.50;;;5.00;;
19575;SDS011;41589;51.196;7.074;2023-04-07T11:37:22;5.47;;;5.00;;
19575;SDS011;41589;51.196;7.074;2023-04-07T11:42:32;6.43;;;5.53;;
19575;SDS011;41589;51.196;7.074;2023-04-07T11:47:37;5.50;;;5.00;;
19575;SDS011;41589;51.196;7.074;2023-04-07T11:52:44;5.30;;;4.80;;
19575;SDS011;41589;51.196;7.074;2023-04-07T11:57:52;4.90;;;4.50;;
19575;SDS011;41589;51.196;7.074;2023-04-07T12:02:55;5.20;;;4.80;;
19575;SDS011;41589;51.196;7.074;2023-04-07T12:08:01;4.87;;;4.43;;
19575;SDS011;41589;51.196;7.074;2023-04-07T12:13:05;4.90;;;4.50;;
19575;SDS011;41589;51.196;7.074;2023-04-07T12:18:06;4.80;;;4.40;;
19575;SDS011;41589;51.196;7.074;2023-04-07T12:23:23;5.67;;;5.13;;
19575;SDS011;41589;51.196;7.074;2023-04-07T12:28:23;6.73;;;5.50;;
19575;SDS011;41589;51.196;7.074;2023-04-07T12:33:24;5.50;;;5.10;;
19575;SDS011;41589;51.196;7.074;2023-04-07T12:38:29;4.97;;;4.67;;
19575;SDS011;41589;51.196;7.074;2023-04-07T12:43:36;5.37;;;4.97;;
19575;SDS011;41589;51.196;7.074;2023-04-07T12:48:36;5.53;;;5.13;;
19575;SDS011;41589;51.196;7.074;2023-04-07T12:53:40;5.20;;;4.80;;
19575;SDS011;41589;51.196;7.074;2023-04-07T12:58:44;4.97;;;4.57;;
19575;SDS011;41589;51.196;7.074;2023-04-07T13:03:58;5.17;;;4.87;;
19575;SDS011;41589;51.196;7.074;2023-04-07T13:08:58;5.77;;;5.27;;
19575;SDS011;41589;51.196;7.074;2023-04-07T13:13:59;5.80;;;5.30;;
19575;SDS011;41589;51.196;7.074;2023-04-07T13:19:03;5.17;;;4.77;;
19575;SDS011;41589;51.196;7.074;2023-04-07T13:24:04;5.30;;;5.00;;
19575;SDS011;41589;51.196;7.074;2023-04-07T13:29:04;6.03;;;5.63;;
19575;SDS011;41589;51.196;7.074;2023-04-07T13:34:05;5.47;;;5.07;;
19575;SDS011;41589;51.196;7.074;2023-04-07T13:39:06;5.13;;;4.80;;
19575;SDS011;41589;51.196;7.074;2023-04-07T13:44:07;5.50;;;5.00;;
19575;SDS011;41589;51.196;7.074;2023-04-07T13:49:07;4.73;;;4.43;;
19575;SDS011;41589;51.196;7.074;2023-04-07T13:54:12;4.90;;;4.50;;
19575;SDS011;41589;51.196;7.074;2023-04-07T13:59:15;4.93;;;4.57;;
19575;SDS011;41589;51.196;7.074;2023-04-07T14:04:18;5.20;;;4.70;;
19575;SDS011;41589;51.196;7.074;2023-04-07T14:09:21;4.63;;;4.33;;
19575;SDS011;41589;51.196;7.074;2023-04-07T14:14:24;4.87;;;4.57;;
19575;SDS011;41589;51.196;7.074;2023-04-07T14:19:25;5.90;;;5.40;;
19575;SDS011;41589;51.196;7.074;2023-04-07T14:24:25;5.80;;;5.37;;
19575;SDS011;41589;51.196;7.074;2023-04-07T14:29:26;5.67;;;5.27;;
19575;SDS011;41589;51.196;7.074;2023-04-07T14:34:26;5.13;;;4.83;;
19575;SDS011;41589;51.196;7.074;2023-04-07T14:39:26;4.93;;;4.63;;
19575;SDS011;41589;51.196;7.074;2023-04-07T14:44:27;4.80;;;4.50;;
19575;SDS011;41589;51.196;7.074;2023-04-07T14:49:30;5.50;;;5.10;;
19575;SDS011;41589;51.196;7.074;2023-04-07T14:54:30;5.33;;;5.03;;
19575;SDS011;41589;51.196;7.074;2023-04-07T14:59:30;5.50;;;5.13;;
19575;SDS011;41589;51.196;7.074;2023-04-07T15:04:31;5.73;;;5.23;;
19575;SDS011;41589;51.196;7.074;2023-04-07T15:09:32;4.50;;;4.20;;
19575;SDS011;41589;51.196;7.074;2023-04-07T15:14:32;4.20;;;3.90;;
19575;SDS011;41589;51.196;7.074;2023-04-07T15:19:32;4.83;;;4.53;;
19575;SDS011;41589;51.196;7.074;2023-04-07T15:24:33;5.60;;;5.20;;
19575;SDS011;41589;51.196;7.074;2023-04-07T15:29:33;5.37;;;4.97;;
19575;SDS011;41589;51.196;7.074;2023-04-07T15:34:33;5.30;;;4.90;;
19575;SDS011;41589;51.196;7.074;2023-04-07T15:39:34;5.47;;;4.93;;
19575;SDS011;41589;51.196;7.074;2023-04-07T15:44:34;5.13;;;4.73;;
19575;SDS011;41589;51.196;7.074;2023-04-07T15:49:38;5.33;;;4.37;;
19575;SDS011;41589;51.196;7.074;2023-04-07T15:54:40;5.40;;;5.00;;
19575;SDS011;41589;51.196;7.074;2023-04-07T15:59:40;7.97;;;5.83;;
19575;SDS011;41589;51.196;7.074;2023-04-07T16:04:41;6.87;;;6.30;;
19575;SDS011;41589;51.196;7.074;2023-04-07T16:09:41;6.77;;;6.27;;
19575;SDS011;41589;51.196;7.074;2023-04-07T16:14:42;7.43;;;6.90;;
19575;SDS011;41589;51.196;7.074;2023-04-07T16:19:42;6.27;;;5.77;;
19575;SDS011;41589;51.196;7.074;2023-04-07T16:24:42;5.77;;;5.27;;
19575;SDS011;41589;51.196;7.074;2023-04-07T16:29:43;6.00;;;5.50;;
19575;SDS011;41589;51.196;7.074;2023-04-07T16:34:43;6.10;;;5.60;;
19575;SDS011;41589;51.196;7.074;2023-04-07T16:39:43;6.13;;;5.63;;
19575;SDS011;41589;51.196;7.074;2023-04-07T16:44:45;5.07;;;4.73;;
19575;SDS011;41589;51.196;7.074;2023-04-07T16:49:45;5.60;;;5.20;;
19575;SDS011;41589;51.196;7.074;2023-04-07T16:54:45;5.77;;;5.27;;
19575;SDS011;41589;51.196;7.074;2023-04-07T16:59:46;5.33;;;4.93;;
19575;SDS011;41589;51.196;7.074;2023-04-07T17:04:47;6.60;;;6.10;;
19575;SDS011;41589;51.196;7.074;2023-04-07T17:09:47;5.83;;;5.33;;
19575;SDS011;41589;51.196;7.074;2023-04-07T17:14:48;5.80;;;5.40;;
19575;SDS011;41589;51.196;7.074;2023-04-07T17:19:48;5.87;;;5.47;;
19575;SDS011;41589;51.196;7.074;2023-04-07T17:24:48;6.47;;;5.97;;
19575;SDS011;41589;51.196;7.074;2023-04-07T17:29:49;5.50;;;5.10;;
19575;SDS011;41589;51.196;7.074;2023-04-07T17:34:49;6.20;;;5.70;;
19575;SDS011;41589;51.196;7.074;2023-04-07T17:39:50;6.50;;;6.00;;
19575;SDS011;41589;51.196;7.074;2023-04-07T17:44:50;5.90;;;5.50;;
19575;SDS011;41589;51.196;7.074;2023-04-07T17:49:51;6.23;;;5.83;;
19575;SDS011;41589;51.196;7.074;2023-04-07T17:54:52;6.03;;;5.60;;
19575;SDS011;41589;51.196;7.074;2023-04-07T17:59:52;6.87;;;6.17;;
19575;SDS011;41589;51.196;7.074;2023-04-07T18:04:52;7.07;;;6.37;;
19575;SDS011;41589;51.196;7.074;2023-04-07T18:09:53;7.97;;;7.27;;
19575;SDS011;41589;51.196;7.074;2023-04-07T18:14:55;6.70;;;6.23;;
19575;SDS011;41589;51.196;7.074;2023-04-07T18:19:55;7.30;;;6.70;;
19575;SDS011;41589;51.196;7.074;2023-04-07T18:24:56;7.20;;;6.60;;
19575;SDS011;41589;51.196;7.074;2023-04-07T18:29:59;6.77;;;6.20;;
19575;SDS011;41589;51.196;7.074;2023-04-07T18:34:59;8.17;;;7.47;;
19575;SDS011;41589;51.196;7.074;2023-04-07T18:40:00;7.53;;;6.97;;
19575;SDS011;41589;51.196;7.074;2023-04-07T18:45:00;6.97;;;6.27;;
19575;SDS011;41589;51.196;7.074;2023-04-07T18:50:01;6.67;;;6.07;;
19575;SDS011;41589;51.196;7.074;2023-04-07T18:55:02;6.40;;;5.90;;
19575;SDS011;41589;51.196;7.074;2023-04-07T19:00:03;7.40;;;6.83;;
19575;SDS011;41589;51.196;7.074;2023-04-07T19:05:04;7.47;;;6.87;;
19575;SDS011;41589;51.196;7.074;2023-04-07T19:10:04;8.10;;;7.30;;
19575;SDS011;41589;51.196;7.074;2023-04-07T19:15:06;7.87;;;7.17;;
19575;SDS011;41589;51.196;7.074;2023-04-07T19:20:07;7.90;;;7.10;;
19575;SDS011;41589;51.196;7.074;2023-04-07T19:25:07;8.97;;;8.07;;
19575;SDS011;41589;51.196;7.074;2023-04-07T19:30:08;9.03;;;8.23;;
19575;SDS011;41589;51.196;7.074;2023-04-07T19:35:09;10.00;;;9.00;;
19575;SDS011;41589;51.196;7.074;2023-04-07T19:40:10;11.10;;;9.93;;
19575;SDS011;41589;51.196;7.074;2023-04-07T19:45:11;10.57;;;9.47;;
19575;SDS011;41589;51.196;7.074;2023-04-07T19:50:11;12.43;;;9.97;;
19575;SDS011;41589;51.196;7.074;2023-04-07T19:55:13;12.70;;;10.27;;
19575;SDS011;41589;51.196;7.074;2023-04-07T20:00:14;14.03;;;10.53;;
19575;SDS011;41589;51.196;7.074;2023-04-07T20:05:21;14.93;;;11.07;;
19575;SDS011;41589;51.196;7.074;2023-04-07T20:10:21;8.63;;;7.83;;
19575;SDS011;41589;51.196;7.074;2023-04-07T20:15:22;11.50;;;8.83;;
19575;SDS011;41589;51.196;7.074;2023-04-07T20:20:23;9.57;;;8.67;;
19575;SDS011;41589;51.196;7.074;2023-04-07T20:25:24;10.37;;;9.37;;
19575;SDS011;41589;51.196;7.074;2023-04-07T20:30:24;10.60;;;9.20;;
19575;SDS011;41589;51.196;7.074;2023-04-07T20:35:25;9.90;;;8.90;;
19575;SDS011;41589;51.196;7.074;2023-04-07T20:40:25;9.50;;;8.60;;
19575;SDS011;41589;51.196;7.074;2023-04-07T20:45:26;11.40;;;9.67;;
19575;SDS011;41589;51.196;7.074;2023-04-07T20:50:27;9.53;;;8.70;;
19575;SDS011;41589;51.196;7.074;2023-04-07T20:55:27;10.47;;;9.37;;
19575;SDS011;41589;51.196;7.074;2023-04-07T21:00:28;11.63;;;10.43;;
19575;SDS011;41589;51.196;7.074;2023-04-07T21:05:28;10.40;;;9.30;;
19575;SDS011;41589;51.196;7.074;2023-04-07T21:10:28;9.80;;;8.80;;
19575;SDS011;41589;51.196;7.074;2023-04-07T21:15:29;10.63;;;9.60;;
19575;SDS011;41589;51.196;7.074;2023-04-07T21:20:29;11.73;;;9.90;;
19575;SDS011;41589;51.196;7.074;2023-04-07T21:25:30;9.33;;;8.43;;
19575;SDS011;41589;51.196;7.074;2023-04-07T21:30:30;8.60;;;7.80;;
19575;SDS011;41589;51.196;7.074;2023-04-07T21:35:32;10.73;;;7.77;;
19575;SDS011;41589;51.196;7.074;2023-04-07T21:40:32;9.07;;;8.03;;
19575;SDS011;41589;51.196;7.074;2023-04-07T21:45:32;17.87;;;11.00;;
19575;SDS011;41589;51.196;7.074;2023-04-07T21:50:33;13.47;;;9.67;;
19575;SDS011;41589;51.196;7.074;2023-04-07T21:55:34;12.53;;;9.67;;
19575;SDS011;41589;51.196;7.074;2023-04-07T22:00:34;11.30;;;10.10;;
19575;SDS011;41589;51.196;7.074;2023-04-07T22:05:37;24.53;;;14.67;;
19575;SDS011;41589;51.196;7.074;2023-04-07T22:10:38;20.90;;;12.77;;
19575;SDS011;41589;51.196;7.074;2023-04-07T22:15:38;16.77;;;12.23;;
19575;SDS011;41589;51.196;7.074;2023-04-07T22:20:39;18.60;;;13.07;;
19575;SDS011;41589;51.196;7.074;2023-04-07T22:25:39;24.13;;;14.57;;
19575;SDS011;41589;51.196;7.074;2023-04-07T22:30:40;23.40;;;14.67;;
19575;SDS011;41589;51.196;7.074;2023-04-07T22:35:40;26.80;;;15.53;;
19575;SDS011;41589;51.196;7.074;2023-04-07T22:40:40;25.70;;;15.10;;
19575;SDS011;41589;51.196;7.074;2023-04-07T22:45:41;34.10;;;16.60;;
19575;SDS011;41589;51.196;7.074;2023-04-07T22:50:41;59.00;;;21.30;;
19575;SDS011;41589;51.196;7.074;2023-04-07T22:55:41;53.73;;;16.90;;
19575;SDS011;41589;51.196;7.074;2023-04-07T23:00:42;74.77;;;23.33;;
19575;SDS011;41589;51.196;7.074;2023-04-07T23:05:42;67.97;;;22.67;;
19575;SDS011;41589;51.196;7.074;2023-04-07T23:10:42;35.73;;;16.23;;
19575;SDS011;41589;51.196;7.074;2023-04-07T23:15:44;118.47;;;26.93;;
19575;SDS011;41589;51.196;7.074;2023-04-07T23:20:48;85.60;;;27.50;;
19575;SDS011;41589;51.196;7.074;2023-04-07T23:25:50;75.23;;;23.83;;
19575;SDS011;41589;51.196;7.074;2023-04-07T23:30:50;64.33;;;22.30;;
19575;SDS011;41589;51.196;7.074;2023-04-07T23:35:51;93.43;;;22.47;;
19575;SDS011;41589;51.196;7.074;2023-04-07T23:40:51;78.07;;;22.10;;
19575;SDS011;41589;51.196;7.074;2023-04-07T23:45:52;113.70;;;29.23;;
19575;SDS011;41589;51.196;7.074;2023-04-07T23:50:52;151.40;;;30.33;;
19575;SDS011;41589;51.196;7.074;2023-04-07T23:55:53;98.43;;;20.07;;
